createdAt,value
2018-04-28T00:00:47.683Z,52
2018-04-28T00:01:47.837Z,52.03
2018-04-28T00:02:47.842Z,52.05
2018-04-28T00:03:47.776Z,52.04
2018-04-28T00:04:47.694Z,52.04
2018-04-28T00:05:47.800Z,52.03
2018-04-28T00:06:47.797Z,52.01
2018-04-28T00:07:47.674Z,51.98
2018-04-28T00:08:47.792Z,52.03
2018-04-28T00:09:47.869Z,52.01
2018-04-28T00:10:47.709Z,52
2018-04-28T00:11:47.600Z,52.01
2018-04-28T00:12:47.677Z,52.02
2018-04-28T00:13:47.778Z,51.99
2018-04-28T00:14:47.783Z,52.01
2018-04-28T00:15:47.840Z,52.01
2018-04-28T00:16:47.611Z,51.95
2018-04-28T00:17:47.753Z,52.06
2018-04-28T00:18:47.783Z,52.04
2018-04-28T00:19:47.747Z,51.95
2018-04-28T00:20:47.658Z,52.02
2018-04-28T00:21:47.683Z,51.97
2018-04-28T00:22:47.699Z,52
2018-04-28T00:23:47.757Z,52.02
2018-04-28T00:24:47.878Z,52
2018-04-28T00:25:47.757Z,51.98
2018-04-28T00:26:47.599Z,52.01
2018-04-28T00:27:47.658Z,52.06
2018-04-28T00:28:47.643Z,51.96
2018-04-28T00:29:47.711Z,52.03
2018-04-28T00:30:47.796Z,52.01
2018-04-28T00:31:47.710Z,51.95
2018-04-28T00:32:47.819Z,52.01
2018-04-28T00:33:47.819Z,52
2018-04-28T00:34:50.762Z,52
2018-04-28T00:35:47.616Z,52.01
2018-04-28T00:36:47.655Z,52.01
2018-04-28T00:37:47.706Z,52
2018-04-28T00:38:47.770Z,52
2018-04-28T00:39:47.625Z,51.99
2018-04-28T00:40:47.915Z,51.97
2018-04-28T00:41:47.798Z,52.01
2018-04-28T00:42:47.659Z,51.97
2018-04-28T00:43:47.850Z,51.93
2018-04-28T00:44:47.645Z,52.01
2018-04-28T00:45:47.472Z,52.01
2018-04-28T00:46:47.725Z,51.98
2018-04-28T00:47:47.731Z,52
2018-04-28T00:48:47.636Z,51.98
2018-04-28T00:49:47.608Z,52.01
2018-04-28T00:50:47.589Z,52.04
2018-04-28T00:51:47.665Z,51.98
2018-04-28T00:52:47.817Z,51.97
2018-04-28T00:53:47.787Z,52
2018-04-28T00:54:47.710Z,52
2018-04-28T00:55:47.932Z,51.98
2018-04-28T00:56:47.778Z,52.02
2018-04-28T00:57:47.727Z,52.01
2018-04-28T00:58:47.781Z,51.96
2018-04-28T00:59:47.635Z,52.04
2018-04-28T01:00:47.710Z,51.97
2018-04-28T01:01:47.795Z,52
2018-04-28T01:02:47.747Z,52.02
2018-04-28T01:03:47.832Z,51.97
2018-04-28T01:04:47.947Z,51.96
2018-04-28T01:05:47.897Z,52.05
2018-04-28T01:06:47.734Z,52
2018-04-28T01:07:47.632Z,52.01
2018-04-28T01:08:48.048Z,52.01
2018-04-28T01:09:47.473Z,52
2018-04-28T01:10:47.996Z,52.01
2018-04-28T01:11:47.928Z,52.02
2018-04-28T01:12:47.759Z,52.01
2018-04-28T01:13:48.016Z,51.94
2018-04-28T01:14:47.739Z,52.03
2018-04-28T01:15:47.693Z,51.98
2018-04-28T01:16:47.968Z,51.98
2018-04-28T01:17:48.028Z,52.02
2018-04-28T01:18:47.764Z,52.01
2018-04-28T01:19:47.782Z,52.07
2018-04-28T01:20:48.056Z,52.06
2018-04-28T01:21:47.913Z,51.97
2018-04-28T01:22:47.833Z,52.02
2018-04-28T01:23:47.548Z,52.03
2018-04-28T01:24:47.667Z,51.96
2018-04-28T01:25:47.687Z,51.96
2018-04-28T01:26:47.762Z,52.03
2018-04-28T01:27:47.634Z,51.96
2018-04-28T01:28:47.715Z,51.99
2018-04-28T01:29:47.816Z,52.04
2018-04-28T01:30:48.011Z,51.97
2018-04-28T01:31:47.633Z,51.96
2018-04-28T01:32:47.860Z,52.02
2018-04-28T01:33:47.807Z,51.95
2018-04-28T01:34:47.730Z,51.99
2018-04-28T01:35:47.811Z,52.01
2018-04-28T01:36:47.598Z,51.95
2018-04-28T01:37:47.704Z,51.97
2018-04-28T01:38:47.612Z,51.99
2018-04-28T01:39:47.662Z,51.97
2018-04-28T01:40:47.631Z,51.97
2018-04-28T01:41:47.604Z,52.02
2018-04-28T01:42:47.862Z,51.99
2018-04-28T01:43:47.841Z,51.92
2018-04-28T01:44:47.678Z,52
2018-04-28T01:45:47.837Z,51.99
2018-04-28T01:46:47.882Z,51.99
2018-04-28T01:47:47.767Z,52
2018-04-28T01:48:47.933Z,51.98
2018-04-28T01:49:47.910Z,51.95
2018-04-28T01:50:47.993Z,52.01
2018-04-28T01:51:47.927Z,51.95
2018-04-28T01:52:47.829Z,51.99
2018-04-28T01:53:47.809Z,52.01
2018-04-28T01:54:47.822Z,52.01
2018-04-28T01:55:47.967Z,52
2018-04-28T01:56:47.989Z,52.04
2018-04-28T01:57:47.935Z,52.02
2018-04-28T01:58:47.899Z,51.97
2018-04-28T01:59:47.969Z,52.02
2018-04-28T02:00:48.011Z,52.01
2018-04-28T02:01:47.656Z,52.01
2018-04-28T02:02:47.811Z,52.01
2018-04-28T02:03:47.876Z,51.97
2018-04-28T02:04:47.772Z,51.99
2018-04-28T02:05:47.973Z,52
2018-04-28T02:06:47.684Z,51.98
2018-04-28T02:07:47.903Z,51.99
2018-04-28T02:08:47.816Z,52.01
2018-04-28T02:09:48.045Z,51.98
2018-04-28T02:10:48.865Z,52.03
2018-04-28T02:11:48.068Z,52.02
2018-04-28T02:12:47.916Z,52
2018-04-28T02:13:47.897Z,52.01
2018-04-28T02:14:48.541Z,52.03
2018-04-28T02:15:47.651Z,51.98
2018-04-28T02:16:47.883Z,52.02
2018-04-28T02:17:47.893Z,52.03
2018-04-28T02:18:47.934Z,52.01
2018-04-28T02:19:48.143Z,52
2018-04-28T02:20:48.002Z,52.05
2018-04-28T02:21:48.040Z,51.97
2018-04-28T02:22:48.038Z,52.02
2018-04-28T02:23:47.752Z,52.05
2018-04-28T02:24:47.731Z,52.02
2018-04-28T02:25:47.793Z,51.98
2018-04-28T02:26:47.790Z,52.01
2018-04-28T02:27:47.987Z,52.02
2018-04-28T02:28:48.330Z,51.99
2018-04-28T02:29:48.053Z,52
2018-04-28T02:30:47.668Z,51.97
2018-04-28T02:31:48.028Z,51.96
2018-04-28T02:32:47.646Z,52.07
2018-04-28T02:33:48.323Z,51.96
2018-04-28T02:34:47.887Z,52
2018-04-28T02:35:47.908Z,52.05
2018-04-28T02:36:47.773Z,52
2018-04-28T02:37:48.013Z,52
2018-04-28T02:38:48.231Z,52.03
2018-04-28T02:39:47.853Z,52.01
2018-04-28T02:40:47.560Z,52
2018-04-28T02:41:47.813Z,52.05
2018-04-28T02:42:47.622Z,51.99
2018-04-28T02:43:48.387Z,52
2018-04-28T02:44:48.025Z,52.06
2018-04-28T02:45:47.990Z,52.01
2018-04-28T02:46:47.708Z,51.95
2018-04-28T02:47:48.020Z,52.03
2018-04-28T02:48:47.995Z,51.96
2018-04-28T02:49:47.713Z,51.98
2018-04-28T02:50:47.647Z,52.03
2018-04-28T02:51:48.037Z,52.04
2018-04-28T02:52:47.990Z,51.97
2018-04-28T02:53:47.902Z,52.03
2018-04-28T02:54:47.956Z,52.03
2018-04-28T02:55:47.940Z,51.96
2018-04-28T02:56:47.641Z,52.01
2018-04-28T02:57:48.084Z,52
2018-04-28T02:58:47.544Z,51.97
2018-04-28T02:59:47.964Z,52
2018-04-28T03:00:48.205Z,52.03
2018-04-28T03:01:47.595Z,51.98
2018-04-28T03:02:47.824Z,52.01
2018-04-28T03:03:47.603Z,51.98
2018-04-28T03:04:47.764Z,51.99
2018-04-28T03:05:47.749Z,52.06
2018-04-28T03:06:47.755Z,52.02
2018-04-28T03:07:47.726Z,52.01
2018-04-28T03:08:47.827Z,52.05
2018-04-28T03:09:47.523Z,52
2018-04-28T03:10:47.929Z,52.01
2018-04-28T03:11:47.562Z,52.08
2018-04-28T03:12:47.841Z,51.99
2018-04-28T03:13:47.603Z,51.98
2018-04-28T03:14:47.759Z,52.05
2018-04-28T03:15:47.522Z,51.99
2018-04-28T03:16:47.640Z,51.99
2018-04-28T03:17:47.505Z,52.05
2018-04-28T03:18:47.625Z,51.99
2018-04-28T03:19:47.808Z,51.96
2018-04-28T03:20:47.716Z,52.03
2018-04-28T03:21:47.690Z,52.01
2018-04-28T03:22:47.598Z,51.99
2018-04-28T03:23:47.748Z,52.05
2018-04-28T03:24:47.660Z,52.03
2018-04-28T03:25:47.794Z,51.98
2018-04-28T03:26:47.859Z,52.05
2018-04-28T03:27:47.625Z,51.99
2018-04-28T03:28:47.613Z,52.02
2018-04-28T03:29:47.586Z,52.03
2018-04-28T03:30:47.549Z,52
2018-04-28T03:31:47.731Z,52.04
2018-04-28T03:32:47.587Z,52.01
2018-04-28T03:33:47.745Z,52
2018-04-28T03:34:47.602Z,52.02
2018-04-28T03:35:47.769Z,52.02
2018-04-28T03:36:47.508Z,51.98
2018-04-28T03:37:47.785Z,52
2018-04-28T03:38:47.699Z,52.03
2018-04-28T03:39:47.596Z,52.03
2018-04-28T03:40:47.743Z,52.03
2018-04-28T03:41:47.572Z,52.05
2018-04-28T03:42:47.560Z,52.01
2018-04-28T03:43:47.772Z,52.05
2018-04-28T03:44:47.601Z,52.07
2018-04-28T03:45:47.599Z,52.05
2018-04-28T03:46:47.764Z,52.02
2018-04-28T03:47:47.692Z,52.06
2018-04-28T03:48:47.893Z,51.96
2018-04-28T03:49:47.911Z,51.97
2018-04-28T03:50:47.568Z,52.04
2018-04-28T03:51:47.767Z,52.02
2018-04-28T03:52:47.612Z,52.02
2018-04-28T03:53:47.719Z,52.08
2018-04-28T03:54:47.856Z,52.03
2018-04-28T03:55:47.547Z,52.03
2018-04-28T03:56:47.695Z,52.05
2018-04-28T03:57:47.772Z,52.02
2018-04-28T03:58:47.554Z,52
2018-04-28T03:59:47.597Z,52.07
2018-04-28T04:00:47.588Z,52.01
2018-04-28T04:01:47.567Z,52.04
2018-04-28T04:02:47.633Z,52.03
2018-04-28T04:03:47.599Z,52.02
2018-04-28T04:04:47.555Z,52
2018-04-28T04:05:47.702Z,52.09
2018-04-28T04:06:47.767Z,52.03
2018-04-28T04:07:47.785Z,52.02
2018-04-28T04:08:47.749Z,52.05
2018-04-28T04:09:47.686Z,52.07
2018-04-28T04:10:47.745Z,52.02
2018-04-28T04:11:47.568Z,52.05
2018-04-28T04:12:47.537Z,52
2018-04-28T04:13:47.740Z,52.06
2018-04-28T04:14:47.628Z,52.07
2018-04-28T04:15:48.033Z,52.04
2018-04-28T04:16:47.627Z,52.05
2018-04-28T04:17:47.479Z,52.06
2018-04-28T04:18:47.766Z,52.06
2018-04-28T04:19:47.567Z,52.07
2018-04-28T04:20:47.642Z,52.09
2018-04-28T04:21:47.804Z,52.03
2018-04-28T04:22:47.921Z,52.06
2018-04-28T04:23:47.579Z,52.07
2018-04-28T04:24:47.639Z,52.05
2018-04-28T04:25:47.647Z,52.01
2018-04-28T04:26:47.788Z,52.02
2018-04-28T04:27:47.530Z,52.03
2018-04-28T04:28:47.616Z,52.05
2018-04-28T04:29:47.723Z,52.07
2018-04-28T04:30:47.509Z,52.08
2018-04-28T04:31:48.073Z,51.99
2018-04-28T04:32:47.592Z,52.05
2018-04-28T04:33:47.509Z,52.05
2018-04-28T04:34:47.524Z,52.04
2018-04-28T04:35:47.667Z,52.1
2018-04-28T04:36:47.605Z,52.08
2018-04-28T04:37:48.668Z,52.03
2018-04-28T04:38:47.673Z,52.05
2018-04-28T04:39:47.524Z,52.04
2018-04-28T04:40:47.657Z,52.05
2018-04-28T04:41:47.733Z,52.09
2018-04-28T04:42:47.656Z,52.03
2018-04-28T04:43:47.685Z,52.04
2018-04-28T04:44:47.769Z,52.08
2018-04-28T04:45:47.710Z,52.02
2018-04-28T04:46:47.503Z,52.02
2018-04-28T04:47:47.688Z,52.07
2018-04-28T04:48:47.596Z,52.03
2018-04-28T04:49:47.687Z,52.05
2018-04-28T04:50:47.561Z,52.09
2018-04-28T04:51:47.581Z,52.03
2018-04-28T04:52:47.535Z,52.07
2018-04-28T04:53:47.758Z,52.06
2018-04-28T04:54:47.755Z,52.09
2018-04-28T04:55:47.769Z,52.01
2018-04-28T04:56:47.654Z,52.09
2018-04-28T04:57:47.495Z,52.05
2018-04-28T04:58:47.668Z,52.01
2018-04-28T04:59:47.849Z,52.1
2018-04-28T05:00:47.785Z,52.04
2018-04-28T05:01:47.682Z,52.07
2018-04-28T05:02:47.913Z,52.09
2018-04-28T05:03:47.712Z,52.07
2018-04-28T05:04:47.491Z,52.06
2018-04-28T05:05:47.543Z,52.11
2018-04-28T05:06:47.613Z,52.11
2018-04-28T05:07:47.602Z,52.11
2018-04-28T05:08:47.652Z,52.06
2018-04-28T05:09:47.621Z,52.04
2018-04-28T05:10:47.697Z,52.05
2018-04-28T05:11:47.410Z,52.1
2018-04-28T05:12:47.585Z,52.07
2018-04-28T05:13:47.687Z,52.03
2018-04-28T05:14:47.695Z,52.13
2018-04-28T05:15:47.723Z,52.05
2018-04-28T05:16:47.649Z,52.07
2018-04-28T05:17:47.594Z,52.07
2018-04-28T05:18:47.688Z,52.09
2018-04-28T05:19:47.473Z,52.11
2018-04-28T05:20:47.649Z,52.09
2018-04-28T05:21:47.470Z,52.12
2018-04-28T05:22:47.753Z,52.11
2018-04-28T05:23:47.560Z,52.12
2018-04-28T05:24:47.817Z,52.1
2018-04-28T05:25:47.543Z,52.08
2018-04-28T05:26:47.641Z,52.14
2018-04-28T05:27:47.615Z,52.09
2018-04-28T05:28:47.639Z,52.1
2018-04-28T05:29:47.663Z,52.12
2018-04-28T05:30:47.429Z,52.06
2018-04-28T05:31:47.516Z,52.1
2018-04-28T05:32:48.074Z,52.11
2018-04-28T05:33:47.603Z,52.09
2018-04-28T05:34:47.675Z,52.1
2018-04-28T05:35:47.721Z,52.14
2018-04-28T05:36:47.713Z,52.05
2018-04-28T05:37:47.692Z,52.12
2018-04-28T05:38:47.660Z,52.12
2018-04-28T05:39:47.465Z,52.07
2018-04-28T05:40:47.739Z,52.07
2018-04-28T05:41:47.617Z,52.11
2018-04-28T05:42:47.719Z,52.11
2018-04-28T05:43:47.520Z,52.07
2018-04-28T05:44:47.725Z,52.09
2018-04-28T05:45:47.513Z,52.11
2018-04-28T05:46:47.651Z,52.09
2018-04-28T05:47:47.605Z,52.12
2018-04-28T05:48:47.483Z,52.06
2018-04-28T05:49:47.537Z,52.12
2018-04-28T05:50:47.583Z,52.07
2018-04-28T05:51:47.751Z,52.1
2018-04-28T05:52:47.506Z,52.06
2018-04-28T05:53:47.611Z,52.11
2018-04-28T05:54:47.571Z,52.05
2018-04-28T05:55:47.589Z,52.06
2018-04-28T05:56:47.762Z,52.13
2018-04-28T05:57:48.505Z,52.12
2018-04-28T05:58:47.542Z,52.04
2018-04-28T05:59:47.675Z,52.09
2018-04-28T06:00:47.553Z,52.06
2018-04-28T06:01:47.744Z,52.07
2018-04-28T06:02:47.667Z,52.07
2018-04-28T06:03:47.527Z,52.04
2018-04-28T06:04:47.785Z,52
2018-04-28T06:05:47.827Z,52.09
2018-04-28T06:06:47.547Z,52.07
2018-04-28T06:07:47.568Z,52.03
2018-04-28T06:08:47.522Z,52.07
2018-04-28T06:09:47.484Z,52.07
2018-04-28T06:10:47.480Z,52.05
2018-04-28T06:11:47.626Z,52.1
2018-04-28T06:12:47.545Z,52.08
2018-04-28T06:13:47.542Z,52.07
2018-04-28T06:14:47.657Z,52.08
2018-04-28T06:15:47.615Z,52.09
2018-04-28T06:16:47.666Z,52.1
2018-04-28T06:17:47.595Z,52.11
2018-04-28T06:18:47.537Z,52.08
2018-04-28T06:19:47.580Z,52.04
2018-04-28T06:20:47.534Z,52.13
2018-04-28T06:21:47.645Z,52.09
2018-04-28T06:22:47.537Z,52.08
2018-04-28T06:23:47.666Z,52.13
2018-04-28T06:24:47.797Z,52.07
2018-04-28T06:25:47.487Z,52.07
2018-04-28T06:26:47.548Z,52.11
2018-04-28T06:27:47.503Z,52.1
2018-04-28T06:28:47.686Z,52.06
2018-04-28T06:29:47.676Z,52.11
2018-04-28T06:30:47.704Z,52.05
2018-04-28T06:31:47.553Z,52.06
2018-04-28T06:32:47.680Z,52.05
2018-04-28T06:33:47.779Z,52.07
2018-04-28T06:34:47.649Z,52.01
2018-04-28T06:35:48.383Z,52.12
2018-04-28T06:36:47.731Z,52.05
2018-04-28T06:37:47.498Z,52.09
2018-04-28T06:38:47.558Z,52.11
2018-04-28T06:39:47.714Z,52.06
2018-04-28T06:40:47.634Z,52.07
2018-04-28T06:41:47.586Z,52.06
2018-04-28T06:42:47.683Z,52.04
2018-04-28T06:43:47.663Z,52.01
2018-04-28T06:44:47.757Z,52.07
2018-04-28T06:45:47.463Z,52
2018-04-28T06:46:47.486Z,52.05
2018-04-28T06:47:47.495Z,52.11
2018-04-28T06:48:47.648Z,52.05
2018-04-28T06:49:47.538Z,52.01
2018-04-28T06:50:47.674Z,52.07
2018-04-28T06:51:47.522Z,52.05
2018-04-28T06:52:47.655Z,52
2018-04-28T06:53:47.450Z,52.06
2018-04-28T06:54:47.666Z,52.01
2018-04-28T06:55:47.635Z,51.98
2018-04-28T06:56:47.763Z,52.03
2018-04-28T06:57:47.636Z,52
2018-04-28T06:58:47.702Z,52.02
2018-04-28T06:59:47.580Z,52.05
2018-04-28T07:00:47.803Z,51.99
2018-04-28T07:01:47.488Z,51.92
2018-04-28T07:02:47.525Z,52.03
2018-04-28T07:03:47.625Z,52
2018-04-28T07:04:47.452Z,52.01
2018-04-28T07:05:47.481Z,52.01
2018-04-28T07:06:47.416Z,52.01
2018-04-28T07:07:47.670Z,51.99
2018-04-28T07:08:47.589Z,52.02
2018-04-28T07:09:47.489Z,51.98
2018-04-28T07:10:48.459Z,51.98
2018-04-28T07:11:47.479Z,52.04
2018-04-28T07:12:47.842Z,52.01
2018-04-28T07:13:47.550Z,51.93
2018-04-28T07:14:47.777Z,51.99
2018-04-28T07:15:47.688Z,51.99
2018-04-28T07:16:47.628Z,52.03
2018-04-28T07:17:47.468Z,52.03
2018-04-28T07:18:47.586Z,51.94
2018-04-28T07:19:47.455Z,52.02
2018-04-28T07:20:47.578Z,51.99
2018-04-28T07:21:47.617Z,51.98
2018-04-28T07:22:47.613Z,51.96
2018-04-28T07:23:47.540Z,52
2018-04-28T07:24:47.441Z,51.99
2018-04-28T07:25:47.584Z,51.98
2018-04-28T07:26:47.729Z,52
2018-04-28T07:27:47.547Z,52.03
2018-04-28T07:28:47.594Z,51.99
2018-04-28T07:29:47.614Z,52.31
2018-04-28T07:30:47.558Z,51.98
2018-04-28T07:31:47.449Z,52.01
2018-04-28T07:32:47.646Z,52.21
2018-04-28T07:33:47.769Z,52.29
2018-04-28T07:34:47.609Z,52.43
2018-04-28T07:35:47.509Z,52.43
2018-04-28T07:36:47.691Z,52.49
2018-04-28T07:37:47.684Z,52.49
2018-04-28T07:38:47.641Z,52.51
2018-04-28T07:39:47.649Z,52.55
2018-04-28T07:40:47.443Z,52.52
2018-04-28T07:41:47.587Z,52.49
2018-04-28T07:42:47.865Z,52.58
2018-04-28T07:43:47.377Z,52.45
2018-04-28T07:44:47.884Z,52.46
2018-04-28T07:45:47.655Z,52.56
2018-04-28T07:46:47.494Z,52.39
2018-04-28T07:47:47.519Z,52.14
2018-04-28T07:48:47.659Z,52.25
2018-04-28T07:49:47.535Z,52.35
2018-04-28T07:50:47.526Z,52.35
2018-04-28T07:51:47.565Z,52.35
2018-04-28T07:52:47.572Z,52.32
2018-04-28T07:53:47.631Z,52.43
2018-04-28T07:54:47.856Z,52.38
2018-04-28T07:55:47.538Z,52.43
2018-04-28T07:56:47.671Z,52.41
2018-04-28T07:57:47.534Z,52.43
2018-04-28T07:58:47.518Z,52.39
2018-04-28T07:59:47.604Z,52.37
2018-04-28T08:00:47.578Z,52.34
2018-04-28T08:01:47.668Z,52.34
2018-04-28T08:02:47.493Z,52.35
2018-04-28T08:03:47.784Z,52.36
2018-04-28T08:04:47.512Z,52.29
2018-04-28T08:05:47.671Z,52.31
2018-04-28T08:06:47.595Z,52.27
2018-04-28T08:07:47.761Z,52.27
2018-04-28T08:08:47.536Z,52.24
2018-04-28T08:09:47.638Z,52.18
2018-04-28T08:10:47.572Z,52.23
2018-04-28T08:11:47.524Z,52.23
2018-04-28T08:12:47.605Z,52.21
2018-04-28T08:13:47.610Z,52.19
2018-04-28T08:14:47.589Z,52.16
2018-04-28T08:15:47.609Z,52.13
2018-04-28T08:16:47.667Z,52.16
2018-04-28T08:17:47.510Z,52.26
2018-04-28T08:18:47.470Z,52.22
2018-04-28T08:19:47.492Z,52.21
2018-04-28T08:20:48.221Z,52.25
2018-04-28T08:21:47.493Z,52.24
2018-04-28T08:22:47.498Z,52.25
2018-04-28T08:23:47.603Z,52.3
2018-04-28T08:24:47.573Z,52.27
2018-04-28T08:25:47.654Z,52.23
2018-04-28T08:26:47.499Z,52.26
2018-04-28T08:27:47.465Z,52.27
2018-04-28T08:28:47.468Z,52.25
2018-04-28T08:29:47.594Z,52.26
2018-04-28T08:30:47.635Z,52.28
2018-04-28T08:31:47.572Z,52.25
2018-04-28T08:32:47.670Z,52.27
2018-04-28T08:33:47.514Z,52.25
2018-04-28T08:34:47.633Z,52.22
2018-04-28T08:35:47.488Z,52.25
2018-04-28T08:36:48.140Z,52.26
2018-04-28T08:37:48.947Z,52.27
2018-04-28T08:38:47.526Z,52.25
2018-04-28T08:39:47.642Z,52.29
2018-04-28T08:40:47.450Z,52.22
2018-04-28T08:41:47.463Z,52.29
2018-04-28T08:42:47.663Z,52.28
2018-04-28T08:43:47.557Z,52.25
2018-04-28T08:44:47.504Z,52.25
2018-04-28T08:45:47.569Z,52.27
2018-04-28T08:46:47.597Z,52.3
2018-04-28T08:47:47.700Z,52.28
2018-04-28T08:48:47.498Z,52.28
2018-04-28T08:49:47.517Z,52.29
2018-04-28T08:50:47.401Z,52.26
2018-04-28T08:51:47.545Z,52.24
2018-04-28T08:52:47.560Z,52.24
2018-04-28T08:53:47.625Z,52.27
2018-04-28T08:54:47.538Z,52.27
2018-04-28T08:55:47.631Z,52.24
2018-04-28T08:56:47.538Z,52.28
2018-04-28T08:57:47.621Z,52.2
2018-04-28T08:58:47.597Z,52.22
2018-04-28T08:59:47.458Z,52.27
2018-04-28T09:00:47.664Z,52.21
2018-04-28T09:01:47.605Z,52.14
2018-04-28T09:02:47.482Z,52.11
2018-04-28T09:03:48.317Z,52.07
2018-04-28T09:04:47.679Z,52.12
2018-04-28T09:05:47.709Z,52.21
2018-04-28T09:06:47.602Z,52.23
2018-04-28T09:07:47.589Z,52.26
2018-04-28T09:08:47.431Z,52.34
2018-04-28T09:09:47.482Z,52.37
2018-04-28T09:10:47.669Z,52.33
2018-04-28T09:11:47.658Z,52.33
2018-04-28T09:12:47.597Z,52.31
2018-04-28T09:13:47.542Z,52.19
2018-04-28T09:14:47.507Z,52.23
2018-04-28T09:15:47.529Z,52.27
2018-04-28T09:16:47.561Z,52.28
2018-04-28T09:17:47.658Z,52.28
2018-04-28T09:18:47.939Z,52.32
2018-04-28T09:19:47.575Z,52.39
2018-04-28T09:20:47.616Z,52.29
2018-04-28T09:21:47.449Z,52.3
2018-04-28T09:22:47.761Z,52.23
2018-04-28T09:23:50.243Z,52.27
2018-04-28T09:24:48.368Z,52.2
2018-04-28T09:25:47.623Z,52.22
2018-04-28T09:26:47.932Z,52.24
2018-04-28T09:27:47.453Z,52.23
2018-04-28T09:28:47.776Z,52.18
2018-04-28T09:29:47.417Z,52.18
2018-04-28T09:30:47.944Z,52.28
2018-04-28T09:31:47.526Z,52.24
2018-04-28T09:32:47.663Z,52.2
2018-04-28T09:33:48.041Z,52.31
2018-04-28T09:34:47.569Z,52.36
2018-04-28T09:35:47.595Z,52.27
2018-04-28T09:36:47.705Z,52.29
2018-04-28T09:37:47.630Z,52.42
2018-04-28T09:38:47.617Z,52.42
2018-04-28T09:39:47.892Z,52.44
2018-04-28T09:40:47.450Z,52.42
2018-04-28T09:41:47.289Z,52.39
2018-04-28T09:42:47.458Z,52.41
2018-04-28T09:43:47.477Z,52.42
2018-04-28T09:44:47.624Z,52.49
2018-04-28T09:45:47.447Z,52.47
2018-04-28T09:46:47.402Z,52.56
2018-04-28T09:47:47.881Z,52.58
2018-04-28T09:48:47.490Z,52.58
2018-04-28T09:49:47.741Z,52.48
2018-04-28T09:50:47.522Z,52.46
2018-04-28T09:51:47.604Z,52.56
2018-04-28T09:52:48.111Z,52.51
2018-04-28T09:53:47.552Z,52.56
2018-04-28T09:54:47.861Z,52.54
2018-04-28T09:55:48.299Z,52.5
2018-04-28T09:56:47.858Z,52.56
2018-04-28T09:57:47.731Z,52.59
2018-04-28T09:58:47.388Z,52.59
2018-04-28T09:59:47.400Z,52.61
2018-04-28T10:00:47.441Z,52.72
2018-04-28T10:01:47.535Z,52.68
2018-04-28T10:02:47.551Z,52.63
2018-04-28T10:03:47.442Z,52.75
2018-04-28T10:04:47.506Z,52.65
2018-04-28T10:05:47.598Z,52.28
2018-04-28T10:06:47.601Z,52.35
2018-04-28T10:07:47.548Z,52.49
2018-04-28T10:08:47.541Z,52.46
2018-04-28T10:09:47.321Z,52.53
2018-04-28T10:10:47.496Z,52.56
2018-04-28T10:11:47.418Z,52.47
2018-04-28T10:12:48.584Z,52.51
2018-04-28T10:13:47.524Z,52.5
2018-04-28T10:14:47.355Z,52.57
2018-04-28T10:15:47.484Z,52.5
2018-04-28T10:16:47.441Z,52.76
2018-04-28T10:17:47.465Z,52.41
2018-04-28T10:18:47.441Z,52.35
2018-04-28T10:19:47.670Z,52.36
2018-04-28T10:20:47.498Z,52.38
2018-04-28T10:21:47.429Z,52.4
2018-04-28T10:22:47.592Z,52.4
2018-04-28T10:23:47.467Z,52.38
2018-04-28T10:24:47.633Z,52.43
2018-04-28T10:25:47.510Z,52.39
2018-04-28T10:26:47.501Z,52.26
2018-04-28T10:27:48.016Z,52.23
2018-04-28T10:28:47.552Z,52.26
2018-04-28T10:29:47.359Z,52.39
2018-04-28T10:30:47.881Z,52.61
2018-04-28T10:31:47.575Z,52.4
2018-04-28T10:32:47.557Z,52.41
2018-04-28T10:33:47.561Z,52.49
2018-04-28T10:34:47.679Z,52.45
2018-04-28T10:35:47.474Z,52.59
2018-04-28T10:36:47.552Z,52.69
2018-04-28T10:37:47.550Z,52.64
2018-04-28T10:38:47.742Z,52.63
2018-04-28T10:39:47.585Z,52.63
2018-04-28T10:40:47.418Z,52.61
2018-04-28T10:41:47.701Z,52.62
2018-04-28T10:42:47.504Z,52.68
2018-04-28T10:43:47.555Z,52.61
2018-04-28T10:44:47.582Z,52.62
2018-04-28T10:45:47.494Z,52.58
2018-04-28T10:46:47.428Z,52.63
2018-04-28T10:47:47.514Z,52.56
2018-04-28T10:48:47.489Z,52.53
2018-04-28T10:49:47.584Z,52.54
2018-04-28T10:50:47.649Z,52.5
2018-04-28T10:51:47.453Z,52.45
2018-04-28T10:52:47.354Z,52.47
2018-04-28T10:53:48.174Z,52.54
2018-04-28T10:54:47.866Z,52.49
2018-04-28T10:55:47.565Z,52.48
2018-04-28T10:56:47.502Z,52.53
2018-04-28T10:57:47.480Z,52.5
2018-04-28T10:58:47.605Z,52.45
2018-04-28T10:59:47.563Z,52.45
2018-04-28T11:00:47.857Z,52.42
2018-04-28T11:01:47.969Z,52.39
2018-04-28T11:02:47.495Z,52.42
2018-04-28T11:03:47.470Z,52.42
2018-04-28T11:04:47.841Z,52.41
2018-04-28T11:05:47.348Z,52.42
2018-04-28T11:06:47.578Z,52.39
2018-04-28T11:07:47.486Z,52.4
2018-04-28T11:08:47.457Z,52.42
2018-04-28T11:09:47.574Z,52.45
2018-04-28T11:10:47.583Z,52.41
2018-04-28T11:11:47.363Z,52.44
2018-04-28T11:12:47.518Z,52.44
2018-04-28T11:13:47.632Z,52.51
2018-04-28T11:14:47.552Z,52.44
2018-04-28T11:15:47.507Z,52.45
2018-04-28T11:16:47.489Z,52.39
2018-04-28T11:17:47.427Z,52.46
2018-04-28T11:18:47.648Z,52.45
2018-04-28T11:19:48.139Z,52.48
2018-04-28T11:20:47.605Z,52.47
2018-04-28T11:21:47.429Z,52.45
2018-04-28T11:22:47.765Z,52.47
2018-04-28T11:23:47.527Z,52.46
2018-04-28T11:24:47.749Z,52.43
2018-04-28T11:25:48.045Z,52.43
2018-04-28T11:26:47.410Z,52.45
2018-04-28T11:27:47.481Z,52.48
2018-04-28T11:28:47.483Z,52.49
2018-04-28T11:29:47.706Z,52.48
2018-04-28T11:30:47.542Z,52.36
2018-04-28T11:31:47.467Z,52.39
2018-04-28T11:32:47.761Z,52.49
2018-04-28T11:33:47.569Z,52.45
2018-04-28T11:34:47.540Z,52.46
2018-04-28T11:35:47.482Z,52.48
2018-04-28T11:36:47.477Z,52.51
2018-04-28T11:37:47.418Z,52.47
2018-04-28T11:38:47.461Z,52.48
2018-04-28T11:39:47.630Z,52.48
2018-04-28T11:40:47.533Z,52.47
2018-04-28T11:41:47.436Z,52.47
2018-04-28T11:42:47.569Z,52.45
2018-04-28T11:43:47.555Z,52.41
2018-04-28T11:44:47.487Z,52.45
2018-04-28T11:45:47.736Z,52.45
2018-04-28T11:46:47.522Z,52.44
2018-04-28T11:47:47.812Z,52.45
2018-04-28T11:48:47.413Z,52.41
2018-04-28T11:49:47.335Z,52.4
2018-04-28T11:50:47.558Z,52.43
2018-04-28T11:51:47.595Z,52.41
2018-04-28T11:52:47.524Z,52.4
2018-04-28T11:53:47.547Z,52.41
2018-04-28T11:54:47.563Z,52.39
2018-04-28T11:55:47.440Z,52.34
2018-04-28T11:56:47.622Z,52.36
2018-04-28T11:57:47.505Z,52.4
2018-04-28T11:58:47.499Z,52.34
2018-04-28T11:59:47.473Z,52.35
2018-04-28T12:00:47.645Z,52.38
2018-04-28T12:01:47.399Z,52.38
2018-04-28T12:02:47.542Z,52.46
2018-04-28T12:03:47.436Z,52.42
2018-04-28T12:04:47.541Z,52.38
2018-04-28T12:05:48.212Z,52.39
2018-04-28T12:06:47.637Z,52.4
2018-04-28T12:07:47.553Z,52.38
2018-04-28T12:08:47.332Z,52.38
2018-04-28T12:09:47.548Z,52.38
2018-04-28T12:10:47.556Z,52.36
2018-04-28T12:11:47.460Z,52.43
2018-04-28T12:12:47.535Z,52.42
2018-04-28T12:13:47.584Z,52.34
2018-04-28T12:14:47.548Z,52.43
2018-04-28T12:15:47.504Z,52.4
2018-04-28T12:16:47.722Z,52.43
2018-04-28T12:17:47.952Z,52.43
2018-04-28T12:18:47.609Z,52.43
2018-04-28T12:19:47.475Z,52.39
2018-04-28T12:20:47.382Z,52.43
2018-04-28T12:21:47.413Z,52.44
2018-04-28T12:22:47.503Z,52.44
2018-04-28T12:23:47.591Z,52.48
2018-04-28T12:24:47.543Z,52.45
2018-04-28T12:25:47.583Z,52.41
2018-04-28T12:26:47.544Z,52.42
2018-04-28T12:27:47.309Z,52.44
2018-04-28T12:28:47.359Z,52.38
2018-04-28T12:29:48.291Z,52.39
2018-04-28T12:30:47.473Z,52.4
2018-04-28T12:31:47.407Z,52.37
2018-04-28T12:32:47.498Z,52.42
2018-04-28T12:33:47.397Z,52.43
2018-04-28T12:34:47.822Z,52.4
2018-04-28T12:35:47.488Z,52.42
2018-04-28T12:36:47.530Z,52.44
2018-04-28T12:37:47.430Z,52.4
2018-04-28T12:38:47.487Z,52.42
2018-04-28T12:39:47.599Z,52.43
2018-04-28T12:40:47.635Z,52.37
2018-04-28T12:41:47.533Z,52.43
2018-04-28T12:42:47.417Z,52.41
2018-04-28T12:43:47.588Z,52.38
2018-04-28T12:44:47.705Z,52.42
2018-04-28T12:45:47.362Z,52.4
2018-04-28T12:46:47.405Z,52.38
2018-04-28T12:47:47.384Z,52.43
2018-04-28T12:48:47.546Z,52.39
2018-04-28T12:49:47.560Z,52.32
2018-04-28T12:50:48.246Z,52.43
2018-04-28T12:51:47.521Z,52.43
2018-04-28T12:52:47.553Z,52.34
2018-04-28T12:53:47.479Z,52.41
2018-04-28T12:54:47.423Z,52.4
2018-04-28T12:55:47.492Z,52.37
2018-04-28T12:56:47.409Z,52.41
2018-04-28T12:57:47.661Z,52.37